Aeroporto :
LOGIN :

Iscrizione | Disclaimer

   EN    FR    IT 

 










Sommario :    VFR   VFR Marginale   IFR   IFR Intensivo   IFR Molto Intensivo
Visibilità : 
Base nubi : 
>= 8 km
>= 3000ft
5 / 8 km
1000 / 3000 ft
1500m / 5 km
500 / 1000 ft
800 / 1500m
200 / 500 ft
< 800m
< 200 ft
Simboli :   Temporali  Nebbia  Neve Forte  Precipitazioni Forti  Vento > 20 kt
SIGMETs :   Varie  Temporali  Ghiacco  Turbolenza  Onda orograficha  Ceneri Vulcaniche






- Altitudine del aeroporto : 17 ft
- Codice IATA : MPL


LFMT - Montpellier Méditerranée

ULTIMO METAR :
  • 050200Z AUTO VRB03KT CAVOK 02/00 Q0997 NOSIG

METARs OBSOLETI :
  • 050130Z AUTO 30003KT CAVOK 02/00 Q0996 NOSIG
  • 050100Z AUTO 27008KT CAVOK 03/02 Q0996 NOSIG
  • 050030Z AUTO 28004KT CAVOK 03/02 Q0996 NOSIG
  • 050000Z AUTO 26007KT CAVOK 04/02 Q0996 NOSIG
  • 042330Z AUTO 31005KT CAVOK 03/02 Q0996 NOSIG

TAF TAF LFMT
Valido dal 04 a 21 ore il 05 a 21 ore UTC


042000Z 0421/0521 30008KT CAVOK
PROB40
TEMPO 0505/0509 4000 BR
TEMPO 0510/0518 16010KT
ATIS : +33 4 67 13 11 70



MetMap, La meteo Aeronautica in un colpo d'occhio ! - Copyright ORBIFLY Dicembre 2007 - Disclaimer

ORBIFLY MET'MAP TEAM :

Programmazione e sviluppo : Alexandra Zaïnal
Concezione : Baudouin d'Aumeries
Aiuto per la programmazione : Marc-Olivier Méhu
Supporto tecnico e logistico : Manuel Goepfert
Aiuto per la traduzione : Arnaldo La Scala

Contatto : metmap@orbifly.com




FONTI E CREDITI :

   NOAA